Time;durP1;ratioP1;P1;durP2;ratioP2;P2;SDS_P1;SDS_P2;PMS_P1;PMS_P2;Temp;Humidity;BMP_temperature;BMP_pressure;BME280_temperature;BME280_humidity;BME280_pressure;Samples;Min_cycle;Max_cycle;Signal;HPM_P1;HPM_P2
2022/01/03 00:00:49;;;;;;;10.80;2.30;;;;;;;9.54;74.00;99641.23;102419;1313;23959;-63
2022/01/03 00:03:21;;;;;;;13.50;2.10;;;;;;;9.51;74.14;99635.63;102381;1313;24237;-63
2022/01/03 00:05:52;;;;;;;11.80;2.40;;;;;;;9.48;74.19;99638.06;102483;1312;22715;-64
2022/01/03 00:08:24;;;;;;;10.30;2.30;;;;;;;9.45;74.34;99629.62;102471;1313;25535;-64
2022/01/03 00:10:56;;;;;;;10.10;2.00;;;;;;;9.43;74.39;99623.77;102513;1313;22580;-63
2022/01/03 00:13:28;;;;;;;9.10;2.30;;;;;;;9.40;74.42;99629.41;102540;1313;22573;-63
2022/01/03 00:15:59;;;;;;;11.00;2.00;;;;;;;9.37;74.35;99628.34;102413;1312;23950;-63
2022/01/03 00:18:30;;;;;;;9.90;2.00;;;;;;;9.33;74.40;99628.89;102541;1313;25225;-63
2022/01/03 00:21:02;;;;;;;13.60;2.40;;;;;;;9.29;74.44;99625.64;102511;1313;22564;-63
2022/01/03 00:23:37;;;;;;;14.40;2.80;;;;;;;9.24;74.53;99625.28;102490;1313;22571;-63
2022/01/03 00:26:11;;;;;;;11.30;2.20;;;;;;;9.21;74.48;99623.21;102544;1313;25361;-63
2022/01/03 00:28:51;;;;;;;12.60;2.80;;;;;;;9.18;74.78;99620.73;102636;1313;22763;-64
2022/01/03 00:31:22;;;;;;;9.90;2.40;;;;;;;9.17;74.75;99623.25;102598;1313;24268;-63
2022/01/03 00:33:56;;;;;;;10.20;2.00;;;;;;;9.14;74.98;99623.91;102543;1312;22687;-64
2022/01/03 00:36:31;;;;;;;10.20;2.20;;;;;;;9.11;74.96;99626.10;102526;1312;22585;-64
2022/01/03 00:39:02;;;;;;;13.40;2.70;;;;;;;9.09;74.95;99623.94;102521;1306;23956;-64
2022/01/03 00:41:33;;;;;;;10.10;2.30;;;;;;;9.07;74.94;99632.81;102439;1312;25219;-63
2022/01/03 00:44:04;;;;;;;12.20;2.20;;;;;;;9.01;75.03;99635.16;102825;1305;22732;-64
2022/01/03 00:46:36;;;;;;;10.60;2.00;;;;;;;8.97;75.05;99630.34;102712;1313;22638;-64
2022/01/03 00:49:08;;;;;;;10.20;1.80;;;;;;;8.93;75.18;99633.84;102787;1312;22678;-64
2022/01/03 00:51:39;;;;;;;10.40;2.00;;;;;;;8.92;75.26;99631.13;102596;1312;25448;-64
2022/01/03 00:54:09;;;;;;;11.80;2.60;;;;;;;8.92;75.29;99625.06;102558;1312;22570;-64
2022/01/03 00:56:46;;;;;;;8.60;1.80;;;;;;;8.92;75.42;99618.87;102443;1309;23201;-64
2022/01/03 00:59:22;;;;;;;10.90;2.30;;;;;;;8.92;75.31;99617.66;102566;1308;22600;-64
2022/01/03 01:01:55;;;;;;;8.80;1.90;;;;;;;8.92;75.22;99617.75;102661;1313;22778;-65
2022/01/03 01:04:27;;;;;;;10.00;2.10;;;;;;;8.91;75.40;99620.95;102673;1313;22574;-64
2022/01/03 01:06:59;;;;;;;9.10;2.30;;;;;;;8.90;75.44;99617.17;102445;1302;24297;-63
2022/01/03 01:09:31;;;;;;;8.70;2.20;;;;;;;8.90;75.32;99616.20;102561;1313;25511;-65
2022/01/03 01:12:03;;;;;;;7.90;1.80;;;;;;;8.90;75.51;99609.52;102527;1306;25450;-64
2022/01/03 01:14:34;;;;;;;8.80;1.80;;;;;;;8.91;75.66;99604.89;102643;1312;24207;-63
2022/01/03 01:17:06;;;;;;;12.90;2.10;;;;;;;8.92;75.59;99603.59;102512;1312;23483;-64
2022/01/03 01:19:38;;;;;;;10.50;2.60;;;;;;;8.95;75.60;99604.49;102537;1310;22529;-63
2022/01/03 01:22:10;;;;;;;10.20;2.40;;;;;;;8.96;75.58;99605.92;102443;1312;24434;-64
2022/01/03 01:24:48;;;;;;;11.00;2.50;;;;;;;8.96;75.34;99601.31;102544;1312;22574;-64
2022/01/03 01:30:11;;;;;;;10.40;2.10;;;;;;;8.92;75.32;99601.47;102554;1312;22578;-63
2022/01/03 01:32:48;;;;;;;10.10;1.90;;;;;;;8.91;75.17;99601.30;102608;1309;25535;-64
2022/01/03 01:35:23;;;;;;;10.70;2.10;;;;;;;8.90;75.23;99595.70;102507;1312;22691;-63
2022/01/03 01:37:58;;;;;;;10.30;2.40;;;;;;;8.90;75.49;99591.41;102572;1312;22591;-64
2022/01/03 01:40:30;;;;;;;10.10;2.60;;;;;;;8.90;75.40;99585.99;102554;1306;24265;-64
2022/01/03 01:43:02;;;;;;;9.70;2.60;;;;;;;8.90;75.30;99579.71;102532;1312;25432;-64
2022/01/03 01:45:34;;;;;;;11.20;2.50;;;;;;;8.89;75.47;99571.02;102573;1312;22581;-63
2022/01/03 01:48:09;;;;;;;10.20;2.00;;;;;;;8.90;75.40;99567.06;102717;1312;24420;-63
2022/01/03 01:50:42;;;;;;;7.80;1.80;;;;;;;8.90;75.27;99561.10;102484;1312;25230;-64
2022/01/03 01:53:19;;;;;;;11.80;1.90;;;;;;;8.90;75.38;99549.90;102626;1312;23008;-64
2022/01/03 01:55:52;;;;;;;11.80;2.40;;;;;;;8.89;75.22;99542.87;102444;1312;22664;-64
2022/01/03 01:58:31;;;;;;;12.80;2.30;;;;;;;8.87;75.17;99536.92;102424;1312;24279;-63
2022/01/03 02:01:04;;;;;;;11.20;2.30;;;;;;;8.84;75.15;99532.73;102561;1313;25399;-63
2022/01/03 02:03:48;;;;;;;8.40;2.20;;;;;;;8.79;75.11;99523.38;102613;1312;22649;-64
2022/01/03 02:06:38;;;;;;;13.20;3.30;;;;;;;8.73;75.13;99516.92;102451;1312;22587;-64
2022/01/03 02:09:11;;;;;;;11.00;2.20;;;;;;;8.67;75.40;99509.95;102528;1305;22620;-64
2022/01/03 02:11:54;;;;;;;11.00;2.70;;;;;;;8.63;75.30;99512.88;102560;1312;24001;-64
2022/01/03 02:14:36;;;;;;;13.40;2.60;;;;;;;8.58;75.50;99508.85;103065;1312;22623;-64
2022/01/03 02:17:07;;;;;;;12.90;3.10;;;;;;;8.54;75.47;99509.80;102564;1305;22596;-64
2022/01/03 02:19:40;;;;;;;18.40;2.70;;;;;;;8.50;75.48;99505.80;102528;1313;23910;-63
2022/01/03 02:22:13;;;;;;;14.40;2.80;;;;;;;8.48;75.58;99497.17;102571;1312;25749;-63
2022/01/03 02:24:44;;;;;;;12.60;3.20;;;;;;;8.44;75.54;99495.89;102582;1310;22595;-63
2022/01/03 02:27:15;;;;;;;11.60;2.80;;;;;;;8.42;75.76;99500.46;102488;1312;22667;-63
2022/01/03 02:29:46;;;;;;;10.50;2.60;;;;;;;8.38;75.63;99498.27;102491;1312;22587;-63
2022/01/03 02:32:17;;;;;;;11.50;2.70;;;;;;;8.34;75.56;99492.00;102549;1312;23041;-63
2022/01/03 02:34:48;;;;;;;11.10;2.40;;;;;;;8.30;75.70;99488.13;102555;1309;25404;-63
2022/01/03 02:37:19;;;;;;;8.20;1.90;;;;;;;8.24;75.88;99484.54;102481;1313;25448;-64
2022/01/03 02:39:50;;;;;;;9.00;2.10;;;;;;;8.20;76.04;99481.64;102589;1312;22677;-63
2022/01/03 02:42:24;;;;;;;13.70;3.00;;;;;;;8.18;75.89;99468.11;102604;1312;23186;-63
2022/01/03 02:45:04;;;;;;;8.80;2.30;;;;;;;8.15;75.96;99469.37;102610;1306;22590;-64
2022/01/03 02:47:34;;;;;;;;;;;;;;;8.07;76.05;99464.42;102536;1312;22565;-63
2022/01/03 02:50:07;;;;;;;8.90;2.20;;;;;;;7.99;76.22;99461.77;102680;1313;23262;-64
2022/01/03 02:52:38;;;;;;;8.10;2.10;;;;;;;7.97;76.43;99455.12;102672;1313;25178;-63
2022/01/03 02:55:14;;;;;;;11.20;2.30;;;;;;;7.95;76.41;99453.39;102487;1312;22617;-63
2022/01/03 02:57:47;;;;;;;7.10;1.80;;;;;;;7.93;76.55;99446.86;102471;1312;22609;-63
2022/01/03 03:00:22;;;;;;;10.30;2.00;;;;;;;7.90;76.56;99452.33;102446;1312;22581;-62
2022/01/03 03:02:54;;;;;;;7.80;1.60;;;;;;;7.87;76.68;99453.13;102536;1312;25257;-64
2022/01/03 03:05:25;;;;;;;6.30;1.80;;;;;;;7.85;76.88;99459.50;102682;1310;25468;-63
2022/01/03 03:07:56;;;;;;;10.00;2.10;;;;;;;7.83;77.03;99457.21;102704;1313;25859;-64
2022/01/03 03:10:28;;;;;;;10.30;1.80;;;;;;;7.83;77.19;99457.21;102518;1312;25262;-63
2022/01/03 03:12:58;;;;;;;7.80;1.70;;;;;;;7.84;77.21;99460.46;102618;1312;22609;-63
2022/01/03 03:15:30;;;;;;;9.10;1.70;;;;;;;7.84;77.50;99460.36;102539;1307;25269;-63
2022/01/03 03:18:02;;;;;;;6.50;1.80;;;;;;;7.85;77.83;99464.27;102489;1313;22526;-64
2022/01/03 03:20:34;;;;;;;8.40;1.60;;;;;;;7.86;78.19;99467.80;102612;1307;22576;-64
2022/01/03 03:23:05;;;;;;;12.60;1.90;;;;;;;7.86;78.60;99470.95;102646;1312;24775;-63
2022/01/03 03:25:38;;;;;;;8.30;1.50;;;;;;;7.86;78.74;99460.89;102611;1313;24311;-65
2022/01/03 03:28:12;;;;;;;7.80;1.60;;;;;;;7.86;79.09;99454.27;102625;1312;22734;-64
2022/01/03 03:30:47;;;;;;;10.70;2.00;;;;;;;7.86;79.37;99449.16;102578;1312;25301;-63
2022/01/03 03:33:22;;;;;;;7.00;1.50;;;;;;;7.86;79.60;99437.86;102412;1313;22577;-64
2022/01/03 03:35:54;;;;;;;9.90;2.00;;;;;;;7.88;79.87;99432.64;102357;1312;25428;-64
2022/01/03 03:38:26;;;;;;;9.10;2.20;;;;;;;7.91;79.97;99433.23;102389;1312;22577;-63
2022/01/03 03:40:58;;;;;;;7.50;1.80;;;;;;;7.92;80.27;99437.05;102401;1313;22590;-63
2022/01/03 03:43:30;;;;;;;10.10;1.60;;;;;;;7.94;80.37;99431.63;102711;1312;26628;-63
2022/01/03 03:46:01;;;;;;;11.10;2.30;;;;;;;7.97;80.50;99431.31;102371;1313;22580;-63
2022/01/03 03:48:34;;;;;;;8.10;2.00;;;;;;;8.00;80.75;99430.65;102365;1312;25452;-63
2022/01/03 03:51:05;;;;;;;12.70;2.20;;;;;;;8.02;80.74;99427.96;102323;1313;22636;-62
2022/01/03 03:53:37;;;;;;;9.60;1.90;;;;;;;8.05;81.03;99424.88;102322;1313;22652;-64
2022/01/03 03:56:10;;;;;;;9.60;2.00;;;;;;;8.09;81.15;99422.42;102432;1313;26202;-62
2022/01/03 03:58:43;;;;;;;9.20;1.90;;;;;;;8.13;81.11;99424.14;102455;1313;23168;-62
2022/01/03 04:01:14;;;;;;;8.80;1.60;;;;;;;8.15;81.12;99419.98;102330;1312;25394;-63
2022/01/03 04:03:45;;;;;;;10.40;1.70;;;;;;;8.17;81.22;99416.67;102281;1313;26669;-63
2022/01/03 04:06:17;;;;;;;11.10;2.70;;;;;;;8.23;81.20;99411.41;102387;1312;24303;-63
2022/01/03 04:08:48;;;;;;;8.00;2.10;;;;;;;8.29;81.42;99407.67;102353;1313;25531;-63
2022/01/03 04:11:21;;;;;;;10.10;1.80;;;;;;;8.36;81.34;99399.48;102283;1314;22603;-63
2022/01/03 04:13:52;;;;;;;7.70;1.90;;;;;;;8.42;81.44;99397.26;102410;1313;25434;-63
2022/01/03 04:16:24;;;;;;;10.70;2.20;;;;;;;8.46;81.45;99391.38;102311;1313;25267;-64
2022/01/03 04:18:55;;;;;;;8.80;1.60;;;;;;;8.48;81.36;99389.61;102462;1313;23106;-64
2022/01/03 04:21:29;;;;;;;8.50;1.70;;;;;;;8.46;81.26;99379.61;102333;1313;22967;-63
2022/01/03 04:24:03;;;;;;;9.00;2.00;;;;;;;8.43;81.44;99372.07;102301;1313;22635;-64
2022/01/03 04:26:49;;;;;;;8.30;2.00;;;;;;;8.39;81.36;99361.56;102265;1313;22583;-63
2022/01/03 04:29:25;;;;;;;8.00;1.50;;;;;;;8.36;81.57;99353.48;102317;1313;23589;-63
2022/01/03 04:31:59;;;;;;;11.10;1.90;;;;;;;8.34;81.67;99348.84;102353;1313;23060;-64
2022/01/03 04:34:30;;;;;;;6.00;1.20;;;;;;;8.31;81.68;99342.20;102452;1313;25368;-64
2022/01/03 04:37:04;;;;;;;6.60;1.60;;;;;;;8.29;81.79;99343.58;102331;1313;23032;-62
2022/01/03 04:39:36;;;;;;;10.20;1.80;;;;;;;8.28;81.85;99342.13;102435;1313;22587;-63
2022/01/03 04:42:22;;;;;;;5.70;1.40;;;;;;;8.27;81.91;99342.08;102341;1311;24236;-64
2022/01/03 04:44:57;;;;;;;10.00;1.90;;;;;;;8.26;81.95;99344.09;102343;1310;25300;-63
2022/01/03 04:47:42;;;;;;;5.50;1.20;;;;;;;8.24;82.11;99344.60;102429;1313;22583;-63
2022/01/03 04:50:16;;;;;;;5.40;1.00;;;;;;;8.24;82.03;99339.98;102500;1313;24248;-65
2022/01/03 04:52:49;;;;;;;3.10;0.80;;;;;;;8.27;82.02;99337.02;102492;1313;22643;-64
2022/01/03 04:55:28;;;;;;;3.60;0.60;;;;;;;8.30;82.14;99328.21;102269;1312;23009;-63
2022/01/03 04:57:59;;;;;;;4.40;0.90;;;;;;;8.34;82.05;99321.84;102256;1301;22579;-64
2022/01/03 05:00:35;;;;;;;5.10;0.70;;;;;;;8.39;82.03;99323.07;102507;1313;24312;-64
2022/01/03 05:03:08;;;;;;;2.50;0.60;;;;;;;8.43;81.96;99332.73;102437;1313;26507;-65
2022/01/03 05:05:42;;;;;;;4.80;0.60;;;;;;;8.48;81.70;99341.91;102422;1313;22670;-64
2022/01/03 05:08:15;;;;;;;1.90;0.30;;;;;;;8.55;81.56;99345.73;102504;1313;25515;-63
2022/01/03 05:10:47;;;;;;;1.50;0.30;;;;;;;8.63;81.25;99352.72;102452;1313;22625;-63
2022/01/03 05:13:18;;;;;;;3.40;0.40;;;;;;;8.67;81.08;99348.53;102645;1312;22590;-68
2022/01/03 05:15:50;;;;;;;1.60;0.30;;;;;;;8.73;80.76;99344.85;102399;1306;25397;-63
2022/01/03 05:18:24;;;;;;;0.90;0.30;;;;;;;8.79;80.60;99346.17;102379;1312;22607;-65
2022/01/03 05:20:56;;;;;;;1.50;0.30;;;;;;;8.85;80.26;99342.56;102333;1312;25390;-64
2022/01/03 05:23:27;;;;;;;1.40;0.20;;;;;;;8.88;80.33;99349.49;102400;1313;22630;-65
2022/01/03 05:25:58;;;;;;;1.70;0.30;;;;;;;8.92;80.00;99355.61;102394;1313;22653;-64
2022/01/03 05:28:31;;;;;;;2.80;0.30;;;;;;;8.98;79.96;99353.54;102402;1308;25317;-64
2022/01/03 05:31:03;;;;;;;0.60;0.10;;;;;;;9.00;79.71;99358.27;102345;1313;23318;-64
2022/01/03 05:33:38;;;;;;;1.90;0.20;;;;;;;9.03;79.69;99362.45;102610;1312;25882;-64
2022/01/03 05:36:14;;;;;;;2.00;0.30;;;;;;;9.06;79.64;99361.98;102545;1313;25248;-65
2022/01/03 05:38:44;;;;;;;2.60;0.20;;;;;;;9.07;79.55;99364.20;102579;1309;25229;-63
2022/01/03 05:41:18;;;;;;;1.10;0.10;;;;;;;9.09;79.38;99356.79;102379;1313;25411;-66
2022/01/03 05:43:58;;;;;;;2.10;0.20;;;;;;;9.11;78.97;99361.67;102392;1313;22637;-64
2022/01/03 05:46:38;;;;;;;3.40;0.20;;;;;;;9.15;78.89;99364.55;102585;1307;24252;-63
2022/01/03 05:49:11;;;;;;;0.40;0.20;;;;;;;9.19;78.80;99370.05;102471;1312;25226;-64
2022/01/03 05:51:42;;;;;;;1.90;0.10;;;;;;;9.20;78.60;99378.69;102449;1312;22662;-63
2022/01/03 05:54:14;;;;;;;3.80;0.30;;;;;;;9.21;78.60;99383.55;102379;1309;22586;-64
2022/01/03 05:56:45;;;;;;;2.20;0.20;;;;;;;9.21;78.36;99373.84;102449;1313;22596;-68
2022/01/03 05:59:16;;;;;;;1.00;0.10;;;;;;;9.22;78.33;99375.55;102440;1312;22709;-64
2022/01/03 06:01:48;;;;;;;2.70;0.10;;;;;;;9.22;78.27;99377.54;102423;1313;22649;-63
2022/01/03 06:04:22;;;;;;;3.60;0.20;;;;;;;9.22;77.97;99376.42;102555;1312;25258;-64
2022/01/03 06:07:01;;;;;;;1.30;0.20;;;;;;;9.23;77.73;99378.51;102774;1312;22596;-63
2022/01/03 06:09:32;;;;;;;2.50;0.10;;;;;;;9.24;77.93;99377.35;102337;1312;22627;-64
2022/01/03 06:12:04;;;;;;;2.40;0.30;;;;;;;9.24;78.01;99381.96;102412;1312;22573;-65
2022/01/03 06:14:37;;;;;;;1.30;0.20;;;;;;;9.23;77.73;99382.25;102406;1312;22593;-67
2022/01/03 06:17:08;;;;;;;1.70;0.30;;;;;;;9.23;77.57;99385.75;102495;1313;22600;-64
2022/01/03 06:19:40;;;;;;;1.90;0.20;;;;;;;9.23;77.54;99385.75;102305;1312;22580;-64
2022/01/03 06:22:12;;;;;;;2.00;0.30;;;;;;;9.23;77.63;99382.27;102258;1312;25223;-65
2022/01/03 06:24:44;;;;;;;1.20;0.20;;;;;;;9.23;77.37;99385.15;102297;1312;22588;-64
2022/01/03 06:27:16;;;;;;;1.40;0.20;;;;;;;9.22;77.48;99379.66;102347;1312;22606;-64
2022/01/03 06:29:47;;;;;;;1.50;0.20;;;;;;;9.22;77.33;99378.65;102478;1308;22593;-64
2022/01/03 06:32:18;;;;;;;1.60;0.20;;;;;;;9.23;77.04;99383.42;102437;1312;25220;-64
2022/01/03 06:34:51;;;;;;;0.90;0.20;;;;;;;9.26;76.83;99385.27;102402;1311;24215;-64
2022/01/03 06:37:22;;;;;;;5.60;1.00;;;;;;;9.27;76.98;99388.84;102428;1306;26525;-65
2022/01/03 06:39:54;;;;;;;1.60;0.20;;;;;;;9.26;76.76;99388.47;102505;1313;24226;-64
2022/01/03 06:42:26;;;;;;;1.10;0.30;;;;;;;9.27;76.10;99400.83;102513;1313;22577;-64
2022/01/03 06:44:56;;;;;;;5.60;0.40;;;;;;;9.29;76.43;99398.88;102601;1311;22623;-64
2022/01/03 06:47:28;;;;;;;4.50;0.30;;;;;;;9.30;76.22;99399.23;102506;1312;24339;-65
2022/01/03 06:49:59;;;;;;;2.70;0.20;;;;;;;9.30;75.75;99405.28;102321;1313;22580;-64
2022/01/03 06:52:30;;;;;;;4.20;0.20;;;;;;;9.31;75.46;99408.48;102087;1312;24216;-64
2022/01/03 06:55:02;;;;;;;5.00;0.20;;;;;;;9.32;75.95;99407.71;102356;1312;22720;-65
2022/01/03 06:57:33;;;;;;;2.80;0.20;;;;;;;9.29;75.24;99409.27;102314;1312;24215;-64
2022/01/03 07:00:06;;;;;;;1.90;0.30;;;;;;;9.26;75.47;99414.70;102196;1312;22577;-63
2022/01/03 07:02:42;;;;;;;3.30;0.30;;;;;;;9.22;75.63;99419.06;102599;1312;22624;-64
2022/01/03 07:05:15;;;;;;;5.30;0.50;;;;;;;9.18;75.02;99420.37;102487;1312;22674;-63
2022/01/03 07:07:46;;;;;;;3.40;0.20;;;;;;;9.15;75.06;99421.70;103613;1309;24178;-64
2022/01/03 07:10:19;;;;;;;1.60;0.30;;;;;;;9.15;75.27;99426.72;102729;1309;24231;-66
2022/01/03 07:12:51;;;;;;;3.20;0.20;;;;;;;9.15;75.23;99426.41;103070;1312;22604;-65
2022/01/03 07:21:00;;;;;;;1.50;0.30;;;;;;;9.17;75.00;99433.23;102771;1313;22656;-64
2022/01/03 07:23:31;;;;;;;1.10;0.20;;;;;;;9.17;74.88;99436.06;103167;1306;25355;-65
2022/01/03 07:26:02;;;;;;;4.90;0.30;;;;;;;9.17;74.87;99440.62;102743;1313;22640;-65
2022/01/03 07:28:33;;;;;;;4.70;0.60;;;;;;;9.17;74.28;99442.13;102891;1312;25233;-64
2022/01/03 07:31:05;;;;;;;5.00;0.40;;;;;;;9.19;73.72;99443.52;102744;1313;22604;-64
2022/01/03 07:33:36;;;;;;;2.40;0.50;;;;;;;9.22;73.76;99442.45;102687;1312;24327;-64
2022/01/03 07:36:08;;;;;;;3.20;0.30;;;;;;;9.25;74.12;99451.45;102810;1309;22580;-66
2022/01/03 07:38:39;;;;;;;5.40;0.20;;;;;;;9.25;73.10;99458.89;102773;1312;26514;-64
2022/01/03 07:41:10;;;;;;;3.50;0.30;;;;;;;9.29;73.07;99461.12;102723;1312;24231;-64
2022/01/03 07:43:41;;;;;;;3.90;0.30;;;;;;;9.32;73.13;99458.41;102705;1313;22920;-65
2022/01/03 07:46:13;;;;;;;4.40;0.40;;;;;;;9.34;73.06;99464.88;102848;1312;24774;-64
2022/01/03 07:48:44;;;;;;;3.80;0.30;;;;;;;9.36;72.67;99465.18;102769;1311;25540;-63
2022/01/03 07:51:15;;;;;;;1.90;0.30;;;;;;;9.37;72.74;99468.90;102817;1312;22576;-67
2022/01/03 07:53:46;;;;;;;1.10;0.20;;;;;;;9.39;72.19;99465.95;102930;1305;25454;-64
2022/01/03 07:56:18;;;;;;;1.80;0.20;;;;;;;9.42;71.93;99470.23;102947;1312;23464;-64
2022/01/03 07:58:49;;;;;;;3.30;0.30;;;;;;;9.44;72.22;99471.05;102984;1313;22931;-64
2022/01/03 08:01:22;;;;;;;3.60;0.40;;;;;;;9.46;71.57;99475.35;102856;1313;23898;-64
2022/01/03 08:03:53;;;;;;;4.20;0.40;;;;;;;9.49;71.43;99473.75;102742;1312;23321;-66
2022/01/03 08:06:24;;;;;;;2.60;0.40;;;;;;;9.51;71.54;99477.46;102645;1312;22638;-64
2022/01/03 08:08:55;;;;;;;4.20;0.70;;;;;;;9.53;71.20;99481.64;102589;1312;23032;-65
2022/01/03 08:11:28;;;;;;;3.40;0.30;;;;;;;9.55;71.61;99475.63;102584;1311;23785;-65
2022/01/03 08:13:59;;;;;;;7.20;0.30;;;;;;;9.53;70.98;99472.89;102627;1312;22585;-65
2022/01/03 08:16:31;;;;;;;2.70;0.30;;;;;;;9.51;70.65;99470.42;102597;1312;22609;-65
2022/01/03 08:19:02;;;;;;;1.90;0.30;;;;;;;9.51;71.13;99477.01;102693;1313;22593;-64
2022/01/03 08:21:36;;;;;;;4.60;0.30;;;;;;;9.51;70.94;99476.25;102647;1313;22577;-67
2022/01/03 08:24:08;;;;;;;2.10;0.30;;;;;;;9.53;70.63;99478.95;102697;1312;24227;-65
2022/01/03 08:26:42;;;;;;;4.30;0.40;;;;;;;9.56;70.83;99482.49;102623;1311;24228;-65
2022/01/03 08:29:13;;;;;;;8.70;1.60;;;;;;;9.58;70.55;99481.20;102585;1313;24255;-64
2022/01/03 08:31:44;;;;;;;4.10;0.50;;;;;;;9.60;70.33;99478.98;102706;1313;24241;-66
2022/01/03 08:34:15;;;;;;;3.90;0.40;;;;;;;9.63;70.24;99483.58;102731;1312;24243;-65
2022/01/03 08:36:47;;;;;;;5.10;0.40;;;;;;;9.65;70.37;99491.90;102677;1312;22597;-65
2022/01/03 08:39:18;;;;;;;3.40;0.30;;;;;;;9.67;70.24;99492.48;102614;1309;22606;-65
2022/01/03 08:41:50;;;;;;;5.10;0.40;;;;;;;9.70;70.07;99499.97;102647;1312;25372;-65
2022/01/03 08:44:21;;;;;;;3.30;0.60;;;;;;;9.72;70.09;99500.45;102855;1312;22653;-64
2022/01/03 08:46:53;;;;;;;6.20;0.50;;;;;;;9.74;70.17;99507.57;102651;1313;23490;-65
2022/01/03 08:49:23;;;;;;;5.60;0.90;;;;;;;9.76;69.86;99504.39;102677;1313;25226;-65
2022/01/03 08:51:55;;;;;;;4.80;0.90;;;;;;;9.77;69.96;99507.39;102584;1311;25225;-65
2022/01/03 08:54:26;;;;;;;6.00;0.70;;;;;;;9.78;70.03;99509.09;102700;1313;22597;-65
2022/01/03 08:56:57;;;;;;;2.80;0.50;;;;;;;9.80;69.94;99495.20;102699;1313;22622;-65
2022/01/03 08:59:29;;;;;;;5.00;0.50;;;;;;;9.82;69.63;99502.02;102647;1309;25274;-64
2022/01/03 09:01:59;;;;;;;6.30;0.70;;;;;;;9.83;68.91;99503.04;102743;1313;26143;-64
2022/01/03 09:04:30;;;;;;;3.00;0.30;;;;;;;9.84;69.25;99507.66;103262;1312;22575;-65
2022/01/03 09:07:02;;;;;;;4.40;0.50;;;;;;;9.87;69.05;99511.89;102918;1310;22573;-65
2022/01/03 09:09:34;;;;;;;3.20;0.40;;;;;;;9.91;69.45;99513.46;102767;1313;24189;-64
2022/01/03 09:12:07;;;;;;;7.90;0.70;;;;;;;9.96;69.67;99510.77;102615;1312;22577;-65
2022/01/03 09:14:39;;;;;;;9.30;1.00;;;;;;;10.00;69.55;99509.55;102690;1311;22742;-65
2022/01/03 09:17:10;;;;;;;5.60;0.60;;;;;;;10.03;69.11;99520.63;102625;1313;22570;-65
2022/01/03 09:19:41;;;;;;;2.20;0.30;;;;;;;10.03;68.90;99519.02;102590;1313;24350;-65
2022/01/03 09:22:15;;;;;;;4.30;0.50;;;;;;;10.03;68.35;99521.90;102631;1313;22651;-65
2022/01/03 09:24:54;;;;;;;4.70;0.50;;;;;;;10.03;68.53;99525.25;102735;1311;22600;-65
2022/01/03 09:30:15;;;;;;;4.10;0.40;;;;;;;10.04;67.94;99529.95;102734;1312;22617;-65
2022/01/03 09:32:46;;;;;;;5.10;0.80;;;;;;;10.04;68.05;99539.54;102903;1313;23150;-64
2022/01/03 09:35:17;;;;;;;5.60;0.40;;;;;;;10.02;67.94;99533.03;102778;1312;22623;-63
2022/01/03 09:37:48;;;;;;;4.90;0.60;;;;;;;10.00;67.98;99532.00;102768;1313;22583;-65
2022/01/03 09:40:19;;;;;;;4.20;0.60;;;;;;;9.98;68.22;99533.16;102681;1313;22577;-64
2022/01/03 09:42:56;;;;;;;3.60;0.50;;;;;;;9.97;68.18;99524.11;102524;1313;22580;-65
2022/01/03 09:45:32;;;;;;;7.20;0.80;;;;;;;9.94;67.90;99533.41;102584;1313;22567;-65
2022/01/03 09:48:06;;;;;;;7.60;0.80;;;;;;;9.94;68.35;99529.55;102696;1312;23900;-65
2022/01/03 09:50:38;;;;;;;8.60;0.90;;;;;;;9.95;68.43;99527.99;102572;1312;22517;-65
2022/01/03 09:53:11;;;;;;;4.50;0.50;;;;;;;9.96;68.39;99525.83;102781;1313;22746;-65
2022/01/03 09:55:43;;;;;;;7.60;1.00;;;;;;;9.97;68.19;99528.38;102661;1313;25373;-65
2022/01/03 09:58:15;;;;;;;4.30;0.60;;;;;;;10.00;68.40;99519.99;102706;1312;23450;-65
2022/01/03 10:00:47;;;;;;;9.00;0.80;;;;;;;10.04;68.52;99527.57;102672;1312;22599;-65
2022/01/03 10:03:19;;;;;;;7.40;1.00;;;;;;;10.06;68.46;99524.45;102721;1313;23596;-66
2022/01/03 10:05:50;;;;;;;8.30;0.70;;;;;;;10.10;68.45;99530.32;102583;1306;22574;-65
2022/01/03 10:08:22;;;;;;;5.20;0.60;;;;;;;10.13;68.10;99536.61;102563;1312;24259;-66
2022/01/03 10:10:54;;;;;;;10.20;0.90;;;;;;;10.16;68.31;99533.86;102612;1312;24254;-66
2022/01/03 10:13:25;;;;;;;8.20;0.80;;;;;;;10.19;67.88;99545.95;102868;1305;26543;-65
2022/01/03 10:15:58;;;;;;;7.10;0.60;;;;;;;10.22;67.56;99540.96;102699;1312;22640;-65
2022/01/03 10:18:31;;;;;;;6.60;1.00;;;;;;;10.24;67.43;99548.95;102729;1312;25745;-64
2022/01/03 10:21:03;;;;;;;8.40;1.00;;;;;;;10.25;67.61;99544.44;102759;1312;22599;-65
2022/01/03 10:23:35;;;;;;;9.50;1.40;;;;;;;10.25;67.78;99543.79;102674;1305;22618;-65
2022/01/03 10:26:21;;;;;;;6.40;0.90;;;;;;;10.26;67.77;99546.13;102650;1313;22944;-65
2022/01/03 10:29:14;;;;;;;10.40;1.70;;;;;;;10.27;67.72;99547.90;102691;1310;24576;-65
2022/01/03 10:31:47;;;;;;;6.80;0.60;;;;;;;10.25;67.53;99551.29;102641;1312;22580;-66
2022/01/03 10:34:21;;;;;;;9.40;0.80;;;;;;;10.24;67.56;99550.67;102704;1312;24253;-65
2022/01/03 10:36:54;;;;;;;6.10;1.10;;;;;;;10.24;67.16;99550.98;102795;1311;22584;-66
2022/01/03 10:39:29;;;;;;;8.40;0.90;;;;;;;10.23;67.11;99544.88;102687;1306;22622;-65
2022/01/03 10:42:17;;;;;;;11.60;1.20;;;;;;;10.23;67.00;99548.27;102564;1312;22576;-65
2022/01/03 10:44:49;;;;;;;8.40;0.90;;;;;;;10.23;66.83;99543.91;102742;1312;22696;-65
2022/01/03 10:47:34;;;;;;;6.10;0.70;;;;;;;10.23;66.91;99548.23;102704;1312;25262;-65
2022/01/03 10:50:18;;;;;;;9.80;1.30;;;;;;;10.23;66.81;99548.58;102603;1313;22583;-65
2022/01/03 10:52:49;;;;;;;5.50;0.70;;;;;;;10.22;67.30;99551.05;102709;1313;22576;-65
2022/01/03 10:55:25;;;;;;;8.10;1.10;;;;;;;10.22;67.16;99552.59;102562;1312;25676;-65
2022/01/03 10:57:59;;;;;;;9.40;1.00;;;;;;;10.21;67.05;99553.07;102650;1312;24276;-65
2022/01/03 11:00:33;;;;;;;8.70;0.90;;;;;;;10.18;66.37;99556.04;102557;1312;22626;-67
2022/01/03 11:03:21;;;;;;;4.60;0.70;;;;;;;10.16;66.40;99552.77;102672;1312;24336;-65
2022/01/03 11:06:01;;;;;;;9.20;1.10;;;;;;;10.13;66.60;99552.30;102730;1312;22617;-65
2022/01/03 11:11:40;;;;;;;5.70;0.70;;;;;;;10.10;66.73;99554.14;102531;1314;25339;-65
2022/01/03 11:14:32;;;;;;;6.50;0.80;;;;;;;10.11;66.58;99555.86;102698;1312;25037;-65
2022/01/03 11:17:24;;;;;;;6.90;1.00;;;;;;;10.12;66.37;99560.19;102691;1313;25248;-65
2022/01/03 11:20:00;;;;;;;8.30;0.80;;;;;;;10.10;66.38;99558.90;102723;1313;22628;-64
2022/01/03 11:22:44;;;;;;;8.90;1.20;;;;;;;10.12;66.50;99551.86;102913;1312;22578;-66
2022/01/03 11:25:18;;;;;;;4.60;0.90;;;;;;;10.14;66.52;99554.93;102605;1311;22997;-66
2022/01/03 11:27:49;;;;;;;5.00;0.90;;;;;;;10.15;66.56;99556.61;102601;1312;24798;-65
2022/01/03 11:30:20;;;;;;;8.50;1.10;;;;;;;10.16;66.41;99553.98;102580;1312;24241;-65
2022/01/03 11:32:54;;;;;;;11.10;1.20;;;;;;;10.17;66.64;99547.81;102963;1311;22837;-65
2022/01/03 11:35:26;;;;;;;7.90;0.80;;;;;;;10.17;66.44;99550.20;102705;1313;22518;-65
2022/01/03 11:37:59;;;;;;;10.70;1.60;;;;;;;10.18;66.64;99546.86;102607;1313;25387;-64
2022/01/03 11:40:30;;;;;;;12.20;1.30;;;;;;;10.19;66.74;99547.11;102697;1312;22631;-65
2022/01/03 11:43:02;;;;;;;14.30;2.10;;;;;;;10.19;66.57;99546.16;103685;1312;25373;-65
2022/01/03 11:45:34;;;;;;;6.70;1.20;;;;;;;10.20;66.63;99546.32;103416;1306;22616;-65
2022/01/03 11:48:07;;;;;;;10.10;1.20;;;;;;;10.21;66.52;99547.71;103241;1312;22626;-65
2022/01/03 11:50:40;;;;;;;10.80;1.30;;;;;;;10.23;66.72;99543.20;102810;1306;25373;-66
2022/01/03 11:53:20;;;;;;;13.10;1.40;;;;;;;10.26;66.43;99549.77;102938;1313;24891;-66
2022/01/03 11:55:57;;;;;;;10.70;1.20;;;;;;;10.29;66.13;99550.10;102721;1310;25280;-65
2022/01/03 11:59:01;;;;;;;12.70;1.50;;;;;;;10.30;66.21;99546.37;103007;1311;22680;-65
2022/01/03 12:04:31;;;;;;;10.20;1.50;;;;;;;10.29;65.78;99548.09;102542;1312;22565;-64
2022/01/03 12:07:08;;;;;;;11.70;1.30;;;;;;;10.29;65.83;99550.25;102555;1311;22823;-65
2022/01/03 12:09:43;;;;;;;11.00;1.10;;;;;;;10.27;66.21;99551.97;102636;1311;22642;-65
2022/01/03 12:12:33;;;;;;;13.30;1.30;;;;;;;10.26;66.05;99558.15;102549;1310;22577;-65
2022/01/03 12:15:06;;;;;;;9.30;1.10;;;;;;;10.24;66.03;99561.46;102561;1312;22574;-64